Terminal Aerodrome Forecast
Issued by NWS

Home | Current Version | Previous Version | Text Only | Print | Product List | Glossary On
Versions: 1 2 3 4 5 6 7 8 9 10 11 12 13 14 15 16
000
FTUS43 KAPX 221100
TAFMBL
TAF
KMBL 221120Z 2212/2312 16004KT P6SM SCT250 WS020/21027KT
     FM221500 20012G20KT P6SM FEW060 BKN150
     FM222100 20011G18KT P6SM VCTS BKN060CB OVC150
     FM230100 21010KT P6SM SCT050
     FM230300 33010G17KT P6SM SCT030
      AMD LTD TO CLD VIS AND WIND=

USA.gov is the U.S. government's official web portal to all federal, state and local government web resources and services.